sensor_id;sensor_type;location;lat;lon;timestamp;P1;durP1;ratioP1;P2;durP2;ratioP2
64351;SDS011;50680;52.626;-8.668;2022-07-17T00:00:23;11.10;;;4.35;;
64351;SDS011;50680;52.626;-8.668;2022-07-17T00:02:50;5.68;;;3.42;;
64351;SDS011;50680;52.626;-8.668;2022-07-17T00:05:17;9.10;;;3.85;;
64351;SDS011;50680;52.626;-8.668;2022-07-17T00:07:45;6.57;;;2.83;;
64351;SDS011;50680;52.626;-8.668;2022-07-17T00:10:14;7.78;;;3.45;;
64351;SDS011;50680;52.626;-8.668;2022-07-17T00:12:43;4.47;;;3.08;;
64351;SDS011;50680;52.626;-8.668;2022-07-17T00:15:10;5.32;;;3.08;;
64351;SDS011;50680;52.626;-8.668;2022-07-17T00:17:38;7.22;;;3.20;;
64351;SDS011;50680;52.626;-8.668;2022-07-17T00:20:05;5.28;;;3.22;;
64351;SDS011;50680;52.626;-8.668;2022-07-17T00:22:34;7.85;;;4.25;;
64351;SDS011;50680;52.626;-8.668;2022-07-17T00:25:02;5.93;;;4.07;;
64351;SDS011;50680;52.626;-8.668;2022-07-17T00:27:30;5.65;;;3.80;;
64351;SDS011;50680;52.626;-8.668;2022-07-17T00:29:57;6.78;;;4.55;;
64351;SDS011;50680;52.626;-8.668;2022-07-17T00:32:24;8.90;;;3.50;;
64351;SDS011;50680;52.626;-8.668;2022-07-17T00:34:51;6.00;;;3.75;;
64351;SDS011;50680;52.626;-8.668;2022-07-17T00:37:18;6.18;;;3.45;;
64351;SDS011;50680;52.626;-8.668;2022-07-17T00:39:45;6.55;;;4.20;;
64351;SDS011;50680;52.626;-8.668;2022-07-17T00:42:12;9.15;;;4.95;;
64351;SDS011;50680;52.626;-8.668;2022-07-17T00:44:40;9.05;;;3.90;;
64351;SDS011;50680;52.626;-8.668;2022-07-17T00:47:12;7.15;;;4.07;;
64351;SDS011;50680;52.626;-8.668;2022-07-17T00:49:45;8.52;;;4.15;;
64351;SDS011;50680;52.626;-8.668;2022-07-17T00:52:13;6.60;;;4.13;;
64351;SDS011;50680;52.626;-8.668;2022-07-17T00:54:42;5.20;;;3.80;;
64351;SDS011;50680;52.626;-8.668;2022-07-17T00:57:11;5.57;;;3.05;;
64351;SDS011;50680;52.626;-8.668;2022-07-17T00:59:40;5.40;;;3.55;;
64351;SDS011;50680;52.626;-8.668;2022-07-17T01:02:10;4.88;;;3.15;;
64351;SDS011;50680;52.626;-8.668;2022-07-17T01:04:40;5.72;;;3.40;;
64351;SDS011;50680;52.626;-8.668;2022-07-17T01:07:07;7.90;;;3.50;;
64351;SDS011;50680;52.626;-8.668;2022-07-17T01:09:34;8.25;;;3.60;;
64351;SDS011;50680;52.626;-8.668;2022-07-17T01:12:03;6.25;;;3.88;;
64351;SDS011;50680;52.626;-8.668;2022-07-17T01:14:32;4.25;;;3.55;;
64351;SDS011;50680;52.626;-8.668;2022-07-17T01:16:59;7.25;;;3.33;;
64351;SDS011;50680;52.626;-8.668;2022-07-17T01:19:26;8.52;;;3.60;;
64351;SDS011;50680;52.626;-8.668;2022-07-17T01:21:53;3.90;;;2.80;;
64351;SDS011;50680;52.626;-8.668;2022-07-17T01:24:20;4.30;;;2.90;;
64351;SDS011;50680;52.626;-8.668;2022-07-17T01:26:48;7.22;;;3.33;;
64351;SDS011;50680;52.626;-8.668;2022-07-17T01:29:16;3.97;;;2.78;;
64351;SDS011;50680;52.626;-8.668;2022-07-17T01:31:44;5.38;;;2.80;;
64351;SDS011;50680;52.626;-8.668;2022-07-17T01:34:12;10.18;;;3.35;;
64351;SDS011;50680;52.626;-8.668;2022-07-17T01:36:39;6.57;;;3.10;;
64351;SDS011;50680;52.626;-8.668;2022-07-17T01:39:08;5.80;;;2.70;;
64351;SDS011;50680;52.626;-8.668;2022-07-17T01:41:35;6.78;;;2.78;;
64351;SDS011;50680;52.626;-8.668;2022-07-17T01:44:03;6.00;;;2.78;;
64351;SDS011;50680;52.626;-8.668;2022-07-17T01:46:30;8.75;;;2.60;;
64351;SDS011;50680;52.626;-8.668;2022-07-17T01:48:58;8.80;;;3.08;;
64351;SDS011;50680;52.626;-8.668;2022-07-17T01:51:27;6.45;;;3.08;;
64351;SDS011;50680;52.626;-8.668;2022-07-17T01:53:57;6.30;;;2.70;;
64351;SDS011;50680;52.626;-8.668;2022-07-17T01:56:24;7.18;;;3.17;;
64351;SDS011;50680;52.626;-8.668;2022-07-17T01:58:51;4.50;;;2.95;;
64351;SDS011;50680;52.626;-8.668;2022-07-17T02:01:18;5.00;;;3.13;;
64351;SDS011;50680;52.626;-8.668;2022-07-17T02:03:45;5.50;;;2.70;;
64351;SDS011;50680;52.626;-8.668;2022-07-17T02:06:12;7.85;;;3.00;;
64351;SDS011;50680;52.626;-8.668;2022-07-17T02:08:39;7.82;;;2.88;;
64351;SDS011;50680;52.626;-8.668;2022-07-17T02:11:06;5.30;;;2.90;;
64351;SDS011;50680;52.626;-8.668;2022-07-17T02:13:33;4.82;;;2.42;;
64351;SDS011;50680;52.626;-8.668;2022-07-17T02:16:00;7.22;;;3.28;;
64351;SDS011;50680;52.626;-8.668;2022-07-17T02:18:27;13.05;;;3.70;;
64351;SDS011;50680;52.626;-8.668;2022-07-17T02:20:54;5.65;;;3.00;;
64351;SDS011;50680;52.626;-8.668;2022-07-17T02:23:21;10.52;;;3.45;;
64351;SDS011;50680;52.626;-8.668;2022-07-17T02:25:48;5.57;;;3.33;;
64351;SDS011;50680;52.626;-8.668;2022-07-17T02:28:15;4.78;;;2.70;;
64351;SDS011;50680;52.626;-8.668;2022-07-17T02:30:42;6.50;;;3.08;;
64351;SDS011;50680;52.626;-8.668;2022-07-17T02:33:09;3.80;;;2.40;;
64351;SDS011;50680;52.626;-8.668;2022-07-17T02:35:36;3.33;;;2.92;;
64351;SDS011;50680;52.626;-8.668;2022-07-17T02:38:03;7.82;;;3.80;;
64351;SDS011;50680;52.626;-8.668;2022-07-17T02:40:30;7.90;;;3.65;;
64351;SDS011;50680;52.626;-8.668;2022-07-17T02:42:57;9.93;;;3.08;;
64351;SDS011;50680;52.626;-8.668;2022-07-17T02:45:24;7.30;;;3.30;;
64351;SDS011;50680;52.626;-8.668;2022-07-17T02:47:52;9.90;;;3.45;;
64351;SDS011;50680;52.626;-8.668;2022-07-17T02:50:20;5.47;;;3.10;;
64351;SDS011;50680;52.626;-8.668;2022-07-17T02:52:48;4.88;;;3.25;;
64351;SDS011;50680;52.626;-8.668;2022-07-17T02:55:15;4.40;;;2.90;;
64351;SDS011;50680;52.626;-8.668;2022-07-17T02:57:44;7.00;;;3.47;;
64351;SDS011;50680;52.626;-8.668;2022-07-17T03:00:13;5.38;;;3.45;;
64351;SDS011;50680;52.626;-8.668;2022-07-17T03:02:42;6.50;;;3.00;;
64351;SDS011;50680;52.626;-8.668;2022-07-17T03:05:10;8.02;;;3.28;;
64351;SDS011;50680;52.626;-8.668;2022-07-17T03:07:39;6.82;;;3.80;;
64351;SDS011;50680;52.626;-8.668;2022-07-17T03:10:07;6.25;;;3.63;;
64351;SDS011;50680;52.626;-8.668;2022-07-17T03:12:35;9.18;;;3.58;;
64351;SDS011;50680;52.626;-8.668;2022-07-17T03:15:02;9.93;;;3.85;;
64351;SDS011;50680;52.626;-8.668;2022-07-17T03:17:29;5.70;;;3.55;;
64351;SDS011;50680;52.626;-8.668;2022-07-17T03:19:57;8.35;;;3.67;;
64351;SDS011;50680;52.626;-8.668;2022-07-17T03:22:25;5.55;;;3.55;;
64351;SDS011;50680;52.626;-8.668;2022-07-17T03:24:52;5.10;;;3.33;;
64351;SDS011;50680;52.626;-8.668;2022-07-17T03:27:19;6.40;;;3.78;;
64351;SDS011;50680;52.626;-8.668;2022-07-17T03:29:46;6.80;;;3.47;;
64351;SDS011;50680;52.626;-8.668;2022-07-17T03:32:13;6.85;;;3.85;;
64351;SDS011;50680;52.626;-8.668;2022-07-17T03:34:40;4.28;;;3.50;;
64351;SDS011;50680;52.626;-8.668;2022-07-17T03:37:07;5.30;;;3.45;;
64351;SDS011;50680;52.626;-8.668;2022-07-17T03:39:34;7.15;;;3.83;;
64351;SDS011;50680;52.626;-8.668;2022-07-17T03:42:01;9.88;;;3.60;;
64351;SDS011;50680;52.626;-8.668;2022-07-17T03:44:28;6.95;;;3.65;;
64351;SDS011;50680;52.626;-8.668;2022-07-17T03:46:55;6.18;;;3.58;;
64351;SDS011;50680;52.626;-8.668;2022-07-17T03:49:22;6.63;;;3.53;;
64351;SDS011;50680;52.626;-8.668;2022-07-17T03:51:49;8.73;;;4.05;;
64351;SDS011;50680;52.626;-8.668;2022-07-17T03:54:16;9.30;;;4.43;;
64351;SDS011;50680;52.626;-8.668;2022-07-17T03:56:43;6.82;;;3.88;;
64351;SDS011;50680;52.626;-8.668;2022-07-17T03:59:10;7.07;;;3.60;;
64351;SDS011;50680;52.626;-8.668;2022-07-17T04:01:37;4.40;;;3.50;;
64351;SDS011;50680;52.626;-8.668;2022-07-17T04:04:04;9.07;;;3.83;;
64351;SDS011;50680;52.626;-8.668;2022-07-17T04:06:31;4.93;;;3.88;;
64351;SDS011;50680;52.626;-8.668;2022-07-17T04:08:58;7.13;;;3.30;;
64351;SDS011;50680;52.626;-8.668;2022-07-17T04:11:25;6.88;;;4.43;;
64351;SDS011;50680;52.626;-8.668;2022-07-17T04:13:52;9.43;;;3.60;;
64351;SDS011;50680;52.626;-8.668;2022-07-17T04:16:19;6.50;;;3.42;;
64351;SDS011;50680;52.626;-8.668;2022-07-17T04:18:46;6.10;;;2.75;;
64351;SDS011;50680;52.626;-8.668;2022-07-17T04:21:13;6.57;;;4.15;;
64351;SDS011;50680;52.626;-8.668;2022-07-17T04:23:40;8.25;;;4.15;;
64351;SDS011;50680;52.626;-8.668;2022-07-17T04:26:07;5.22;;;3.45;;
64351;SDS011;50680;52.626;-8.668;2022-07-17T04:28:36;5.05;;;2.53;;
64351;SDS011;50680;52.626;-8.668;2022-07-17T04:31:07;5.25;;;3.83;;
64351;SDS011;50680;52.626;-8.668;2022-07-17T04:33:34;8.48;;;4.38;;
64351;SDS011;50680;52.626;-8.668;2022-07-17T04:36:01;8.07;;;3.80;;
64351;SDS011;50680;52.626;-8.668;2022-07-17T04:38:28;9.85;;;4.28;;
64351;SDS011;50680;52.626;-8.668;2022-07-17T04:40:55;5.70;;;3.70;;
64351;SDS011;50680;52.626;-8.668;2022-07-17T04:43:23;7.07;;;4.40;;
64351;SDS011;50680;52.626;-8.668;2022-07-17T04:45:50;6.88;;;4.28;;
64351;SDS011;50680;52.626;-8.668;2022-07-17T04:48:17;6.00;;;3.35;;
64351;SDS011;50680;52.626;-8.668;2022-07-17T04:50:45;7.82;;;3.90;;
64351;SDS011;50680;52.626;-8.668;2022-07-17T04:53:12;5.32;;;3.72;;
64351;SDS011;50680;52.626;-8.668;2022-07-17T04:55:39;6.90;;;3.97;;
64351;SDS011;50680;52.626;-8.668;2022-07-17T04:58:05;7.25;;;3.88;;
64351;SDS011;50680;52.626;-8.668;2022-07-17T05:00:33;6.57;;;3.15;;
64351;SDS011;50680;52.626;-8.668;2022-07-17T05:03:00;5.95;;;3.55;;
64351;SDS011;50680;52.626;-8.668;2022-07-17T05:05:27;5.78;;;3.47;;
64351;SDS011;50680;52.626;-8.668;2022-07-17T05:07:54;6.68;;;3.75;;
64351;SDS011;50680;52.626;-8.668;2022-07-17T05:10:21;4.75;;;3.78;;
64351;SDS011;50680;52.626;-8.668;2022-07-17T05:12:53;6.93;;;3.53;;
64351;SDS011;50680;52.626;-8.668;2022-07-17T05:15:20;7.15;;;3.75;;
64351;SDS011;50680;52.626;-8.668;2022-07-17T05:17:47;6.50;;;4.15;;
64351;SDS011;50680;52.626;-8.668;2022-07-17T05:20:14;6.47;;;3.83;;
64351;SDS011;50680;52.626;-8.668;2022-07-17T05:22:41;7.20;;;3.53;;
64351;SDS011;50680;52.626;-8.668;2022-07-17T05:25:09;8.90;;;3.70;;
64351;SDS011;50680;52.626;-8.668;2022-07-17T05:27:36;6.97;;;3.42;;
64351;SDS011;50680;52.626;-8.668;2022-07-17T05:30:03;7.40;;;3.95;;
64351;SDS011;50680;52.626;-8.668;2022-07-17T05:32:30;5.88;;;3.42;;
64351;SDS011;50680;52.626;-8.668;2022-07-17T05:34:57;6.72;;;3.65;;
64351;SDS011;50680;52.626;-8.668;2022-07-17T05:37:24;4.68;;;3.25;;
64351;SDS011;50680;52.626;-8.668;2022-07-17T05:39:51;6.00;;;3.15;;
64351;SDS011;50680;52.626;-8.668;2022-07-17T05:42:18;4.88;;;3.33;;
64351;SDS011;50680;52.626;-8.668;2022-07-17T05:44:45;7.85;;;3.15;;
64351;SDS011;50680;52.626;-8.668;2022-07-17T05:47:12;6.18;;;3.50;;
64351;SDS011;50680;52.626;-8.668;2022-07-17T05:49:39;6.53;;;3.28;;
64351;SDS011;50680;52.626;-8.668;2022-07-17T05:52:06;7.00;;;3.72;;
64351;SDS011;50680;52.626;-8.668;2022-07-17T05:54:33;7.90;;;3.40;;
64351;SDS011;50680;52.626;-8.668;2022-07-17T05:57:01;6.15;;;3.20;;
64351;SDS011;50680;52.626;-8.668;2022-07-17T05:59:35;3.45;;;2.80;;
64351;SDS011;50680;52.626;-8.668;2022-07-17T06:02:02;5.95;;;3.05;;
64351;SDS011;50680;52.626;-8.668;2022-07-17T06:04:30;4.18;;;3.03;;
64351;SDS011;50680;52.626;-8.668;2022-07-17T06:06:57;4.03;;;2.95;;
64351;SDS011;50680;52.626;-8.668;2022-07-17T06:09:24;4.15;;;3.15;;
64351;SDS011;50680;52.626;-8.668;2022-07-17T06:11:51;5.22;;;2.75;;
64351;SDS011;50680;52.626;-8.668;2022-07-17T06:14:19;4.47;;;3.20;;
64351;SDS011;50680;52.626;-8.668;2022-07-17T06:16:46;8.27;;;3.10;;
64351;SDS011;50680;52.626;-8.668;2022-07-17T06:19:13;10.25;;;3.58;;
64351;SDS011;50680;52.626;-8.668;2022-07-17T06:21:40;7.15;;;3.22;;
64351;SDS011;50680;52.626;-8.668;2022-07-17T06:24:07;9.55;;;3.55;;
64351;SDS011;50680;52.626;-8.668;2022-07-17T06:26:34;5.03;;;3.13;;
64351;SDS011;50680;52.626;-8.668;2022-07-17T06:29:01;4.93;;;2.60;;
64351;SDS011;50680;52.626;-8.668;2022-07-17T06:31:28;5.38;;;2.78;;
64351;SDS011;50680;52.626;-8.668;2022-07-17T06:33:55;6.05;;;2.90;;
64351;SDS011;50680;52.626;-8.668;2022-07-17T06:36:22;4.95;;;2.83;;
64351;SDS011;50680;52.626;-8.668;2022-07-17T06:38:49;5.55;;;2.92;;
64351;SDS011;50680;52.626;-8.668;2022-07-17T06:41:16;4.22;;;3.05;;
64351;SDS011;50680;52.626;-8.668;2022-07-17T06:43:43;3.25;;;2.47;;
64351;SDS011;50680;52.626;-8.668;2022-07-17T06:46:10;5.00;;;2.97;;
64351;SDS011;50680;52.626;-8.668;2022-07-17T06:48:37;9.35;;;3.30;;
64351;SDS011;50680;52.626;-8.668;2022-07-17T06:51:04;5.10;;;2.83;;
64351;SDS011;50680;52.626;-8.668;2022-07-17T06:53:31;6.40;;;3.00;;
64351;SDS011;50680;52.626;-8.668;2022-07-17T06:55:58;4.70;;;3.03;;
64351;SDS011;50680;52.626;-8.668;2022-07-17T06:58:25;6.60;;;3.05;;
64351;SDS011;50680;52.626;-8.668;2022-07-17T07:00:52;3.53;;;2.60;;
64351;SDS011;50680;52.626;-8.668;2022-07-17T07:03:19;5.55;;;3.28;;
64351;SDS011;50680;52.626;-8.668;2022-07-17T07:05:46;5.75;;;2.92;;
64351;SDS011;50680;52.626;-8.668;2022-07-17T07:08:13;4.68;;;2.88;;
64351;SDS011;50680;52.626;-8.668;2022-07-17T07:10:40;7.43;;;2.97;;
64351;SDS011;50680;52.626;-8.668;2022-07-17T07:13:09;3.97;;;2.88;;
64351;SDS011;50680;52.626;-8.668;2022-07-17T07:15:36;5.80;;;2.63;;
64351;SDS011;50680;52.626;-8.668;2022-07-17T07:18:03;7.82;;;2.75;;
64351;SDS011;50680;52.626;-8.668;2022-07-17T07:20:30;4.25;;;2.80;;
64351;SDS011;50680;52.626;-8.668;2022-07-17T07:22:57;8.95;;;2.58;;
64351;SDS011;50680;52.626;-8.668;2022-07-17T07:25:32;3.28;;;2.45;;
64351;SDS011;50680;52.626;-8.668;2022-07-17T07:28:01;5.30;;;2.60;;
64351;SDS011;50680;52.626;-8.668;2022-07-17T07:30:29;2.65;;;2.33;;
64351;SDS011;50680;52.626;-8.668;2022-07-17T07:32:56;4.10;;;2.40;;
64351;SDS011;50680;52.626;-8.668;2022-07-17T07:35:23;5.57;;;2.92;;
64351;SDS011;50680;52.626;-8.668;2022-07-17T07:37:50;5.57;;;2.65;;
64351;SDS011;50680;52.626;-8.668;2022-07-17T07:40:17;4.65;;;2.80;;
64351;SDS011;50680;52.626;-8.668;2022-07-17T07:42:44;3.35;;;2.28;;
64351;SDS011;50680;52.626;-8.668;2022-07-17T07:45:11;4.47;;;2.80;;
64351;SDS011;50680;52.626;-8.668;2022-07-17T07:47:42;6.03;;;2.55;;
64351;SDS011;50680;52.626;-8.668;2022-07-17T07:50:11;5.32;;;2.95;;
64351;SDS011;50680;52.626;-8.668;2022-07-17T07:52:38;3.33;;;2.60;;
64351;SDS011;50680;52.626;-8.668;2022-07-17T07:55:06;3.67;;;2.20;;
64351;SDS011;50680;52.626;-8.668;2022-07-17T07:57:34;4.90;;;2.72;;
64351;SDS011;50680;52.626;-8.668;2022-07-17T08:00:03;5.47;;;2.53;;
64351;SDS011;50680;52.626;-8.668;2022-07-17T08:02:31;4.35;;;2.65;;
64351;SDS011;50680;52.626;-8.668;2022-07-17T08:04:58;6.38;;;3.00;;
64351;SDS011;50680;52.626;-8.668;2022-07-17T08:07:26;4.00;;;2.08;;
64351;SDS011;50680;52.626;-8.668;2022-07-17T08:09:54;4.60;;;2.40;;
64351;SDS011;50680;52.626;-8.668;2022-07-17T08:12:21;5.18;;;3.22;;
64351;SDS011;50680;52.626;-8.668;2022-07-17T08:15:09;2.78;;;2.25;;
64351;SDS011;50680;52.626;-8.668;2022-07-17T08:17:36;2.63;;;2.22;;
64351;SDS011;50680;52.626;-8.668;2022-07-17T08:20:03;5.53;;;2.38;;
64351;SDS011;50680;52.626;-8.668;2022-07-17T08:22:39;3.85;;;2.15;;
64351;SDS011;50680;52.626;-8.668;2022-07-17T08:25:26;3.95;;;2.35;;
64351;SDS011;50680;52.626;-8.668;2022-07-17T08:27:53;9.15;;;2.42;;
64351;SDS011;50680;52.626;-8.668;2022-07-17T08:30:20;4.07;;;2.38;;
64351;SDS011;50680;52.626;-8.668;2022-07-17T08:32:47;4.72;;;2.10;;
64351;SDS011;50680;52.626;-8.668;2022-07-17T08:35:14;4.05;;;2.10;;
64351;SDS011;50680;52.626;-8.668;2022-07-17T08:37:42;6.55;;;2.03;;
64351;SDS011;50680;52.626;-8.668;2022-07-17T08:40:26;4.25;;;2.35;;
64351;SDS011;50680;52.626;-8.668;2022-07-17T08:42:56;5.03;;;2.40;;
64351;SDS011;50680;52.626;-8.668;2022-07-17T08:45:24;4.75;;;2.55;;
64351;SDS011;50680;52.626;-8.668;2022-07-17T08:47:52;6.57;;;2.30;;
64351;SDS011;50680;52.626;-8.668;2022-07-17T08:50:39;3.88;;;2.30;;
64351;SDS011;50680;52.626;-8.668;2022-07-17T08:53:06;4.10;;;2.10;;
64351;SDS011;50680;52.626;-8.668;2022-07-17T08:55:33;4.03;;;2.10;;
64351;SDS011;50680;52.626;-8.668;2022-07-17T08:58:00;5.78;;;2.00;;
64351;SDS011;50680;52.626;-8.668;2022-07-17T09:00:28;5.70;;;2.10;;
64351;SDS011;50680;52.626;-8.668;2022-07-17T09:05:25;5.18;;;2.28;;
64351;SDS011;50680;52.626;-8.668;2022-07-17T09:08:00;8.25;;;2.25;;
64351;SDS011;50680;52.626;-8.668;2022-07-17T09:10:36;4.20;;;2.00;;
64351;SDS011;50680;52.626;-8.668;2022-07-17T09:13:22;4.45;;;2.30;;
64351;SDS011;50680;52.626;-8.668;2022-07-17T09:18:50;6.05;;;2.40;;
64351;SDS011;50680;52.626;-8.668;2022-07-17T09:21:24;3.67;;;1.95;;
64351;SDS011;50680;52.626;-8.668;2022-07-17T09:24:00;6.80;;;2.78;;
64351;SDS011;50680;52.626;-8.668;2022-07-17T09:26:28;6.25;;;2.40;;
64351;SDS011;50680;52.626;-8.668;2022-07-17T09:28:56;6.13;;;2.50;;
64351;SDS011;50680;52.626;-8.668;2022-07-17T09:31:27;3.88;;;2.20;;
64351;SDS011;50680;52.626;-8.668;2022-07-17T09:33:56;8.90;;;2.08;;
64351;SDS011;50680;52.626;-8.668;2022-07-17T09:36:25;5.55;;;2.10;;
64351;SDS011;50680;52.626;-8.668;2022-07-17T09:38:53;4.22;;;2.00;;
64351;SDS011;50680;52.626;-8.668;2022-07-17T09:41:22;3.67;;;2.03;;
64351;SDS011;50680;52.626;-8.668;2022-07-17T09:43:55;5.03;;;1.88;;
64351;SDS011;50680;52.626;-8.668;2022-07-17T09:46:25;3.90;;;2.22;;
64351;SDS011;50680;52.626;-8.668;2022-07-17T09:49:02;5.05;;;2.05;;
64351;SDS011;50680;52.626;-8.668;2022-07-17T09:51:32;4.68;;;2.00;;
64351;SDS011;50680;52.626;-8.668;2022-07-17T09:54:05;3.47;;;1.90;;
64351;SDS011;50680;52.626;-8.668;2022-07-17T09:56:35;9.00;;;2.10;;
64351;SDS011;50680;52.626;-8.668;2022-07-17T09:59:04;4.90;;;1.73;;
64351;SDS011;50680;52.626;-8.668;2022-07-17T10:01:33;4.35;;;2.00;;
64351;SDS011;50680;52.626;-8.668;2022-07-17T10:04:01;5.88;;;2.30;;
64351;SDS011;50680;52.626;-8.668;2022-07-17T10:06:30;3.88;;;1.98;;
64351;SDS011;50680;52.626;-8.668;2022-07-17T10:08:58;2.45;;;1.98;;
64351;SDS011;50680;52.626;-8.668;2022-07-17T10:11:27;6.78;;;2.10;;
64351;SDS011;50680;52.626;-8.668;2022-07-17T10:14:01;6.32;;;2.10;;
64351;SDS011;50680;52.626;-8.668;2022-07-17T10:16:33;7.05;;;2.28;;
64351;SDS011;50680;52.626;-8.668;2022-07-17T10:19:01;5.82;;;1.90;;
64351;SDS011;50680;52.626;-8.668;2022-07-17T10:21:30;5.88;;;2.35;;
64351;SDS011;50680;52.626;-8.668;2022-07-17T10:29:26;3.00;;;1.67;;
64351;SDS011;50680;52.626;-8.668;2022-07-17T10:31:55;5.47;;;2.03;;
64351;SDS011;50680;52.626;-8.668;2022-07-17T10:34:39;3.10;;;1.67;;
64351;SDS011;50680;52.626;-8.668;2022-07-17T10:37:16;8.30;;;2.40;;
64351;SDS011;50680;52.626;-8.668;2022-07-17T10:45:17;4.75;;;2.08;;
64351;SDS011;50680;52.626;-8.668;2022-07-17T10:50:20;4.53;;;2.13;;
64351;SDS011;50680;52.626;-8.668;2022-07-17T10:53:03;5.30;;;2.40;;
64351;SDS011;50680;52.626;-8.668;2022-07-17T10:55:32;4.18;;;2.33;;
64351;SDS011;50680;52.626;-8.668;2022-07-17T10:58:00;5.97;;;2.13;;
64351;SDS011;50680;52.626;-8.668;2022-07-17T11:03:07;5.82;;;2.20;;
64351;SDS011;50680;52.626;-8.668;2022-07-17T11:05:35;6.70;;;2.17;;
64351;SDS011;50680;52.626;-8.668;2022-07-17T11:08:02;3.85;;;2.22;;
64351;SDS011;50680;52.626;-8.668;2022-07-17T11:10:33;5.18;;;2.00;;
64351;SDS011;50680;52.626;-8.668;2022-07-17T11:13:12;6.70;;;2.35;;
64351;SDS011;50680;52.626;-8.668;2022-07-17T11:15:42;4.05;;;2.28;;
64351;SDS011;50680;52.626;-8.668;2022-07-17T11:18:15;7.80;;;2.40;;
64351;SDS011;50680;52.626;-8.668;2022-07-17T11:20:47;7.05;;;2.17;;
64351;SDS011;50680;52.626;-8.668;2022-07-17T11:23:15;6.55;;;2.53;;
64351;SDS011;50680;52.626;-8.668;2022-07-17T11:26:00;5.70;;;1.98;;
64351;SDS011;50680;52.626;-8.668;2022-07-17T11:28:42;4.03;;;2.03;;
64351;SDS011;50680;52.626;-8.668;2022-07-17T11:33:55;5.75;;;2.75;;
64351;SDS011;50680;52.626;-8.668;2022-07-17T11:36:42;5.93;;;2.20;;
64351;SDS011;50680;52.626;-8.668;2022-07-17T11:39:11;4.13;;;2.25;;
64351;SDS011;50680;52.626;-8.668;2022-07-17T11:41:44;4.47;;;2.30;;
64351;SDS011;50680;52.626;-8.668;2022-07-17T11:44:18;8.18;;;2.28;;
64351;SDS011;50680;52.626;-8.668;2022-07-17T11:46:49;7.07;;;2.20;;
64351;SDS011;50680;52.626;-8.668;2022-07-17T11:49:26;3.65;;;2.25;;
64351;SDS011;50680;52.626;-8.668;2022-07-17T11:51:56;5.40;;;2.28;;
64351;SDS011;50680;52.626;-8.668;2022-07-17T11:54:25;4.97;;;2.38;;
64351;SDS011;50680;52.626;-8.668;2022-07-17T11:56:54;3.40;;;2.00;;
64351;SDS011;50680;52.626;-8.668;2022-07-17T11:59:29;4.43;;;2.27;;
64351;SDS011;50680;52.626;-8.668;2022-07-17T12:02:12;4.57;;;2.08;;
64351;SDS011;50680;52.626;-8.668;2022-07-17T12:04:56;7.03;;;2.38;;
64351;SDS011;50680;52.626;-8.668;2022-07-17T12:07:27;4.07;;;1.88;;
64351;SDS011;50680;52.626;-8.668;2022-07-17T12:10:15;5.93;;;2.10;;
64351;SDS011;50680;52.626;-8.668;2022-07-17T12:12:51;5.90;;;2.30;;
64351;SDS011;50680;52.626;-8.668;2022-07-17T12:15:20;4.93;;;2.40;;
64351;SDS011;50680;52.626;-8.668;2022-07-17T12:17:48;4.00;;;1.83;;
64351;SDS011;50680;52.626;-8.668;2022-07-17T12:20:15;5.60;;;2.25;;
64351;SDS011;50680;52.626;-8.668;2022-07-17T12:22:45;6.05;;;2.38;;
64351;SDS011;50680;52.626;-8.668;2022-07-17T12:25:24;8.90;;;2.25;;
64351;SDS011;50680;52.626;-8.668;2022-07-17T12:27:52;11.07;;;2.50;;
64351;SDS011;50680;52.626;-8.668;2022-07-17T12:30:19;4.18;;;2.15;;
64351;SDS011;50680;52.626;-8.668;2022-07-17T12:32:46;4.18;;;1.95;;
64351;SDS011;50680;52.626;-8.668;2022-07-17T12:35:16;8.73;;;2.20;;
64351;SDS011;50680;52.626;-8.668;2022-07-17T12:37:43;9.52;;;2.15;;
64351;SDS011;50680;52.626;-8.668;2022-07-17T12:40:10;4.38;;;2.08;;
64351;SDS011;50680;52.626;-8.668;2022-07-17T12:42:42;9.20;;;2.05;;
64351;SDS011;50680;52.626;-8.668;2022-07-17T12:45:09;6.82;;;2.03;;
64351;SDS011;50680;52.626;-8.668;2022-07-17T12:47:37;8.75;;;2.08;;
64351;SDS011;50680;52.626;-8.668;2022-07-17T12:50:04;8.65;;;2.50;;
64351;SDS011;50680;52.626;-8.668;2022-07-17T12:52:32;6.45;;;2.00;;
64351;SDS011;50680;52.626;-8.668;2022-07-17T12:54:59;9.40;;;2.63;;
64351;SDS011;50680;52.626;-8.668;2022-07-17T12:57:26;4.32;;;1.80;;
64351;SDS011;50680;52.626;-8.668;2022-07-17T12:59:53;6.95;;;2.10;;
64351;SDS011;50680;52.626;-8.668;2022-07-17T13:02:20;4.53;;;2.03;;
64351;SDS011;50680;52.626;-8.668;2022-07-17T13:04:47;6.05;;;2.10;;
64351;SDS011;50680;52.626;-8.668;2022-07-17T13:07:14;4.88;;;2.00;;
64351;SDS011;50680;52.626;-8.668;2022-07-17T13:09:41;7.68;;;2.20;;
64351;SDS011;50680;52.626;-8.668;2022-07-17T13:12:08;7.70;;;2.15;;
64351;SDS011;50680;52.626;-8.668;2022-07-17T13:14:35;4.78;;;2.10;;
64351;SDS011;50680;52.626;-8.668;2022-07-17T13:17:02;5.20;;;2.13;;
64351;SDS011;50680;52.626;-8.668;2022-07-17T13:19:29;10.63;;;2.25;;
64351;SDS011;50680;52.626;-8.668;2022-07-17T13:21:56;3.63;;;1.98;;
64351;SDS011;50680;52.626;-8.668;2022-07-17T13:24:23;8.93;;;2.35;;
64351;SDS011;50680;52.626;-8.668;2022-07-17T13:26:50;10.40;;;2.25;;
64351;SDS011;50680;52.626;-8.668;2022-07-17T13:29:17;11.07;;;2.00;;
64351;SDS011;50680;52.626;-8.668;2022-07-17T13:31:44;5.72;;;2.30;;
64351;SDS011;50680;52.626;-8.668;2022-07-17T13:34:13;5.60;;;2.35;;
64351;SDS011;50680;52.626;-8.668;2022-07-17T13:36:39;6.28;;;2.30;;
64351;SDS011;50680;52.626;-8.668;2022-07-17T13:39:07;3.90;;;2.05;;
64351;SDS011;50680;52.626;-8.668;2022-07-17T13:41:34;6.47;;;2.08;;
64351;SDS011;50680;52.626;-8.668;2022-07-17T13:44:02;8.00;;;2.15;;
64351;SDS011;50680;52.626;-8.668;2022-07-17T13:46:34;4.10;;;2.10;;
64351;SDS011;50680;52.626;-8.668;2022-07-17T13:49:02;7.07;;;2.50;;
64351;SDS011;50680;52.626;-8.668;2022-07-17T13:51:30;4.90;;;2.05;;
64351;SDS011;50680;52.626;-8.668;2022-07-17T13:53:57;4.65;;;2.15;;
64351;SDS011;50680;52.626;-8.668;2022-07-17T13:56:24;6.90;;;2.45;;
64351;SDS011;50680;52.626;-8.668;2022-07-17T13:58:52;10.80;;;2.30;;
64351;SDS011;50680;52.626;-8.668;2022-07-17T14:01:19;8.27;;;2.47;;
64351;SDS011;50680;52.626;-8.668;2022-07-17T14:03:48;7.65;;;2.38;;
64351;SDS011;50680;52.626;-8.668;2022-07-17T14:06:15;10.00;;;2.20;;
64351;SDS011;50680;52.626;-8.668;2022-07-17T14:08:43;5.43;;;1.90;;
64351;SDS011;50680;52.626;-8.668;2022-07-17T14:11:11;5.22;;;2.10;;
64351;SDS011;50680;52.626;-8.668;2022-07-17T14:13:38;8.80;;;2.17;;
64351;SDS011;50680;52.626;-8.668;2022-07-17T14:16:13;6.25;;;2.17;;
64351;SDS011;50680;52.626;-8.668;2022-07-17T14:18:40;4.65;;;2.10;;
64351;SDS011;50680;52.626;-8.668;2022-07-17T14:21:28;7.97;;;2.45;;
64351;SDS011;50680;52.626;-8.668;2022-07-17T14:23:56;6.15;;;2.40;;
64351;SDS011;50680;52.626;-8.668;2022-07-17T14:26:24;10.00;;;1.95;;
64351;SDS011;50680;52.626;-8.668;2022-07-17T14:28:52;5.90;;;2.10;;
64351;SDS011;50680;52.626;-8.668;2022-07-17T14:31:19;7.38;;;2.05;;
64351;SDS011;50680;52.626;-8.668;2022-07-17T14:33:46;5.38;;;2.15;;
64351;SDS011;50680;52.626;-8.668;2022-07-17T14:36:13;7.07;;;2.15;;
64351;SDS011;50680;52.626;-8.668;2022-07-17T14:38:40;7.05;;;2.67;;
64351;SDS011;50680;52.626;-8.668;2022-07-17T14:41:08;13.20;;;2.45;;
64351;SDS011;50680;52.626;-8.668;2022-07-17T14:43:35;8.45;;;2.60;;
64351;SDS011;50680;52.626;-8.668;2022-07-17T14:46:08;8.32;;;2.80;;
64351;SDS011;50680;52.626;-8.668;2022-07-17T14:48:35;6.00;;;2.13;;
64351;SDS011;50680;52.626;-8.668;2022-07-17T14:51:02;8.00;;;2.20;;
64351;SDS011;50680;52.626;-8.668;2022-07-17T14:53:30;5.28;;;2.42;;
64351;SDS011;50680;52.626;-8.668;2022-07-17T14:55:56;6.90;;;2.05;;
64351;SDS011;50680;52.626;-8.668;2022-07-17T14:58:24;9.15;;;2.35;;
64351;SDS011;50680;52.626;-8.668;2022-07-17T15:00:51;7.10;;;2.58;;
64351;SDS011;50680;52.626;-8.668;2022-07-17T15:03:17;8.23;;;2.88;;
64351;SDS011;50680;52.626;-8.668;2022-07-17T15:05:45;7.43;;;2.88;;